ENT7009 EPRZ-LTAI
Flight info
| Callsign | ENT7009 |
|---|---|
| Flight time | N/A |
| Altitude | 41000 |
| Route | LUMEQ DCT PODAN DCT HATIP DCT ROMKA DCT EMPOS DCT BIVBU DCT APROB DCT ADORU UG80 EKI UL606 CRD UL854 KOZLU |
| Aircraft | A359/H-SDE2E3GHIJ3J4J5LM1ORWXY/LB1D1 |
Departure
| Time | 2026-04-23 15:09 |
|---|---|
| Airport | Rzeszów-Jasionka Airport (EPRZ) |
Arrival
| Time | N/A |
|---|---|
| Airport | Antalya International Airport (LTAI) |
| Time | Latitude | Longitude | Altitude | Speed | Heading |
|---|---|---|---|---|---|
| 2026-04-23 14:56 | 50.11405 | 22.02710 | 698 ft | 0 kts | 1° |
| 2026-04-23 15:01 | 50.11398 | 22.02710 | 698 ft | 3 kts | 9° |
| 2026-04-23 15:01 | 50.11379 | 22.02701 | 694 ft | 3 kts | 31° |
| 2026-04-23 15:01 | 50.11362 | 22.02681 | 688 ft | 3 kts | 53° |
| 2026-04-23 15:02 | 50.11355 | 22.02662 | 688 ft | 3 kts | 68° |
| 2026-04-23 15:02 | 50.11350 | 22.02631 | 688 ft | 0 kts | 85° |
| 2026-04-23 15:03 | 50.11349 | 22.02646 | 688 ft | 2 kts | 94° |
| 2026-04-23 15:03 | 50.11349 | 22.02650 | 688 ft | 1 kts | 101° |
| 2026-04-23 15:04 | 50.11347 | 22.02660 | 688 ft | 0 kts | 113° |
| 2026-04-23 15:05 | 50.11346 | 22.02663 | 688 ft | 0 kts | 121° |
| 2026-04-23 15:05 | 50.11338 | 22.02677 | 689 ft | 2 kts | 137° |
| 2026-04-23 15:05 | 50.11329 | 22.02686 | 692 ft | 0 kts | 148° |
| 2026-04-23 15:05 | 50.11277 | 22.02743 | 689 ft | 21 kts | 163° |
| 2026-04-23 15:06 | 50.11138 | 22.02744 | 692 ft | 21 kts | 181° |
| 2026-04-23 15:06 | 50.11008 | 22.02761 | 693 ft | 14 kts | 147° |
| 2026-04-23 15:06 | 50.10985 | 22.02912 | 697 ft | 24 kts | 90° |
| 2026-04-23 15:06 | 50.10981 | 22.03290 | 691 ft | 43 kts | 90° |
| 2026-04-23 15:07 | 50.10980 | 22.03327 | 690 ft | 43 kts | 91° |
| 2026-04-23 15:07 | 50.10980 | 22.03419 | 689 ft | 43 kts | 90° |
| 2026-04-23 15:07 | 50.10975 | 22.03885 | 689 ft | 44 kts | 92° |
| 2026-04-23 15:07 | 50.10968 | 22.04322 | 685 ft | 37 kts | 90° |
| 2026-04-23 15:08 | 50.10945 | 22.04511 | 681 ft | 14 kts | 102° |
| 2026-04-23 15:08 | 50.10962 | 22.04535 | 678 ft | 0 kts | 237° |
| 2026-04-23 15:08 | 50.10962 | 22.04533 | 678 ft | 2 kts | 244° |
| 2026-04-23 15:09 | 50.10979 | 22.03214 | 692 ft | 120 kts | 270° |
| 2026-04-23 15:09 | 50.10992 | 22.01672 | 868 ft | 156 kts | 275° |
| 2026-04-23 15:09 | 50.10998 | 21.99872 | 1181 ft | 176 kts | 276° |
| 2026-04-23 15:09 | 50.11004 | 21.97889 | 1750 ft | 191 kts | 274° |
| 2026-04-23 15:10 | 50.10975 | 21.96447 | 2171 ft | 201 kts | 274° |
| 2026-04-23 15:10 | 50.11002 | 21.93395 | 2952 ft | 226 kts | 278° |
| 2026-04-23 15:10 | 50.11054 | 21.90847 | 3555 ft | 243 kts | 277° |
| 2026-04-23 15:10 | 50.10932 | 21.88147 | 4185 ft | 262 kts | 261° |
| 2026-04-23 15:11 | 50.10052 | 21.85659 | 4947 ft | 265 kts | 230° |
| 2026-04-23 15:11 | 50.08508 | 21.84282 | 5135 ft | 264 kts | 196° |
| 2026-04-23 15:11 | 50.06630 | 21.84460 | 5605 ft | 277 kts | 165° |
| 2026-04-23 15:11 | 50.04745 | 21.84990 | 6380 ft | 273 kts | 186° |
| 2026-04-23 15:12 | 50.03018 | 21.84105 | 7065 ft | 267 kts | 219° |
| 2026-04-23 15:12 | 50.01824 | 21.81929 | 7413 ft | 268 kts | 253° |
| 2026-04-23 15:12 | 50.01534 | 21.79114 | 7992 ft | 264 kts | 276° |
| 2026-04-23 15:12 | 50.01529 | 21.76226 | 8675 ft | 270 kts | 275° |
| 2026-04-23 15:13 | 50.01440 | 21.73266 | 9337 ft | 278 kts | 272° |
| 2026-04-23 15:13 | 50.01170 | 21.70296 | 9972 ft | 289 kts | 262° |
| 2026-04-23 15:13 | 50.00338 | 21.67310 | 10495 ft | 309 kts | 240° |
| 2026-04-23 15:13 | 49.98725 | 21.65061 | 11068 ft | 327 kts | 212° |
| 2026-04-23 15:14 | 49.96456 | 21.64051 | 11382 ft | 349 kts | 183° |
| 2026-04-23 15:14 | 49.94005 | 21.64502 | 11686 ft | 363 kts | 164° |
| 2026-04-23 15:14 | 49.91575 | 21.65805 | 11961 ft | 376 kts | 155° |
| 2026-04-23 15:14 | 49.89178 | 21.67435 | 12228 ft | 388 kts | 153° |
| 2026-04-23 15:15 | 49.86694 | 21.69169 | 12653 ft | 395 kts | 154° |
| 2026-04-23 15:15 | 49.84147 | 21.70849 | 13153 ft | 400 kts | 155° |
| 2026-04-23 15:15 | 49.81538 | 21.72442 | 13663 ft | 405 kts | 157° |
| 2026-04-23 15:15 | 49.78882 | 21.73960 | 14121 ft | 409 kts | 158° |
| 2026-04-23 15:16 | 49.76080 | 21.74794 | 14551 ft | 414 kts | 179° |
| 2026-04-23 15:16 | 49.73247 | 21.74114 | 15011 ft | 413 kts | 201° |
| 2026-04-23 15:16 | 49.70612 | 21.72376 | 15525 ft | 412 kts | 208° |
| 2026-04-23 15:16 | 49.67959 | 21.70657 | 15986 ft | 418 kts | 201° |
| 2026-04-23 15:17 | 49.65064 | 21.69981 | 16473 ft | 423 kts | 180° |
| 2026-04-23 15:17 | 49.62127 | 21.70363 | 16971 ft | 426 kts | 171° |
| 2026-04-23 15:17 | 49.59204 | 21.71199 | 17440 ft | 428 kts | 168° |
| 2026-04-23 15:17 | 49.56279 | 21.72146 | 17901 ft | 432 kts | 168° |
| 2026-04-23 15:18 | 49.53327 | 21.73044 | 18334 ft | 434 kts | 169° |
| 2026-04-23 15:18 | 49.50338 | 21.73844 | 18729 ft | 437 kts | 171° |
| 2026-04-23 15:18 | 49.47319 | 21.74548 | 19135 ft | 440 kts | 172° |
| 2026-04-23 15:18 | 49.44277 | 21.75189 | 19527 ft | 442 kts | 173° |
| 2026-04-23 15:19 | 49.41214 | 21.75795 | 19923 ft | 445 kts | 173° |
| 2026-04-23 15:19 | 49.38135 | 21.76388 | 20306 ft | 447 kts | 173° |
| 2026-04-23 15:19 | 49.35041 | 21.76982 | 20690 ft | 449 kts | 173° |
| 2026-04-23 15:19 | 49.31924 | 21.77584 | 21068 ft | 452 kts | 173° |
| 2026-04-23 15:20 | 49.29857 | 21.77986 | 21305 ft | 453 kts | 173° |
| 2026-04-23 15:20 | 49.26719 | 21.78597 | 21660 ft | 456 kts | 173° |
| 2026-04-23 15:20 | 49.23560 | 21.79216 | 22039 ft | 458 kts | 173° |
| 2026-04-23 15:20 | 49.20388 | 21.79839 | 22421 ft | 461 kts | 173° |
| 2026-04-23 15:21 | 49.17196 | 21.80465 | 22788 ft | 463 kts | 173° |
| 2026-04-23 15:21 | 49.14000 | 21.81091 | 23139 ft | 466 kts | 173° |
| 2026-04-23 15:21 | 49.10772 | 21.81723 | 23492 ft | 468 kts | 173° |
| 2026-04-23 15:21 | 49.07539 | 21.82355 | 23787 ft | 470 kts | 173° |
| 2026-04-23 15:22 | 49.04286 | 21.82990 | 24081 ft | 472 kts | 173° |
| 2026-04-23 15:22 | 49.01019 | 21.83627 | 24377 ft | 474 kts | 173° |
| 2026-04-23 15:22 | 48.97738 | 21.84265 | 24677 ft | 476 kts | 172° |
| 2026-04-23 15:22 | 48.94447 | 21.84904 | 24984 ft | 479 kts | 172° |
| 2026-04-23 15:23 | 48.91132 | 21.85548 | 25280 ft | 480 kts | 172° |
| 2026-04-23 15:23 | 48.87813 | 21.86192 | 25609 ft | 483 kts | 172° |
| 2026-04-23 15:23 | 48.84468 | 21.86839 | 25942 ft | 484 kts | 172° |
| 2026-04-23 15:23 | 48.81120 | 21.87487 | 26267 ft | 487 kts | 172° |
| 2026-04-23 15:24 | 48.77793 | 21.88128 | 26611 ft | 489 kts | 172° |
| 2026-04-23 15:24 | 48.74361 | 21.88790 | 26956 ft | 491 kts | 172° |
| 2026-04-23 15:24 | 48.70999 | 21.89436 | 27320 ft | 494 kts | 172° |
| 2026-04-23 15:24 | 48.67584 | 21.90093 | 27697 ft | 496 kts | 172° |
| 2026-04-23 15:25 | 48.64148 | 21.90752 | 28081 ft | 499 kts | 171° |
| 2026-04-23 15:25 | 48.60692 | 21.91415 | 28486 ft | 502 kts | 171° |
| 2026-04-23 15:25 | 48.57225 | 21.92078 | 28880 ft | 504 kts | 171° |
| 2026-04-23 15:25 | 48.53737 | 21.92745 | 29280 ft | 507 kts | 171° |
| 2026-04-23 15:26 | 48.50229 | 21.93415 | 29543 ft | 508 kts | 171° |
| 2026-04-23 15:26 | 48.46727 | 21.94082 | 30051 ft | 507 kts | 171° |
| 2026-04-23 15:26 | 48.43226 | 21.94747 | 30582 ft | 505 kts | 171° |
| 2026-04-23 15:26 | 48.39739 | 21.95409 | 31006 ft | 507 kts | 171° |
| 2026-04-23 15:27 | 48.36231 | 21.96075 | 31456 ft | 508 kts | 171° |
| 2026-04-23 15:27 | 48.32821 | 21.96722 | 31905 ft | 508 kts | 171° |
| 2026-04-23 15:27 | 48.29350 | 21.97379 | 32379 ft | 508 kts | 171° |
| 2026-04-23 15:27 | 48.25850 | 21.98040 | 32846 ft | 508 kts | 172° |
| 2026-04-23 15:28 | 48.22372 | 21.98697 | 33311 ft | 507 kts | 172° |
| 2026-04-23 15:28 | 48.18882 | 21.99355 | 33807 ft | 507 kts | 172° |
| 2026-04-23 15:28 | 48.15440 | 22.00003 | 34244 ft | 506 kts | 172° |
| 2026-04-23 15:28 | 48.11950 | 22.00659 | 34666 ft | 505 kts | 172° |
| 2026-04-23 15:29 | 48.08447 | 22.01317 | 34930 ft | 509 kts | 172° |
| 2026-04-23 15:29 | 48.01309 | 22.02655 | 35092 ft | 523 kts | 172° |
| 2026-04-23 15:29 | 47.97702 | 22.03329 | 35500 ft | 521 kts | 172° |
| 2026-04-23 15:30 | 47.94112 | 22.03999 | 35950 ft | 519 kts | 172° |
| 2026-04-23 15:30 | 47.90538 | 22.04664 | 36408 ft | 517 kts | 172° |
| 2026-04-23 15:30 | 47.86974 | 22.05328 | 36872 ft | 514 kts | 172° |
| 2026-04-23 15:30 | 47.83429 | 22.05986 | 37356 ft | 512 kts | 172° |
| 2026-04-23 15:31 | 47.79952 | 22.06632 | 37842 ft | 509 kts | 172° |
| 2026-04-23 15:31 | 47.76468 | 22.07278 | 38341 ft | 505 kts | 173° |
| 2026-04-23 15:31 | 47.73026 | 22.07915 | 38783 ft | 501 kts | 172° |
| 2026-04-23 15:31 | 47.69595 | 22.08548 | 39195 ft | 497 kts | 172° |
| 2026-04-23 15:32 | 47.66174 | 22.09180 | 39605 ft | 493 kts | 172° |
| 2026-04-23 15:32 | 47.62784 | 22.09805 | 40028 ft | 488 kts | 172° |
| 2026-04-23 15:32 | 47.59469 | 22.10704 | 40453 ft | 482 kts | 164° |
| 2026-04-23 15:32 | 47.56322 | 22.12279 | 40817 ft | 475 kts | 154° |
| 2026-04-23 15:33 | 47.53361 | 22.14449 | 40926 ft | 477 kts | 148° |
| 2026-04-23 15:33 | 47.47661 | 22.19631 | 40925 ft | 485 kts | 144° |
| 2026-04-23 15:34 | 47.41978 | 22.25188 | 40925 ft | 495 kts | 144° |
| 2026-04-23 15:34 | 47.36125 | 22.30809 | 40923 ft | 506 kts | 145° |
| 2026-04-23 15:35 | 47.30185 | 22.36395 | 40925 ft | 514 kts | 145° |
| 2026-04-23 15:35 | 47.24141 | 22.42026 | 40927 ft | 513 kts | 145° |
| 2026-04-23 15:36 | 47.18117 | 22.47626 | 40927 ft | 512 kts | 145° |
| 2026-04-23 15:36 | 47.12094 | 22.53217 | 40926 ft | 512 kts | 145° |
| 2026-04-23 15:37 | 47.06061 | 22.58804 | 40930 ft | 512 kts | 145° |
| 2026-04-23 15:37 | 47.00028 | 22.64378 | 40931 ft | 512 kts | 145° |
| 2026-04-23 15:38 | 46.93994 | 22.69935 | 40941 ft | 512 kts | 146° |
| 2026-04-23 15:38 | 46.87967 | 22.75472 | 40930 ft | 512 kts | 146° |
| 2026-04-23 15:39 | 46.81942 | 22.80992 | 40933 ft | 511 kts | 146° |
| 2026-04-23 15:39 | 46.75917 | 22.86497 | 40936 ft | 511 kts | 146° |
| 2026-04-23 15:40 | 46.69890 | 22.91990 | 40931 ft | 511 kts | 146° |
| 2026-04-23 15:40 | 46.63865 | 22.97466 | 40934 ft | 511 kts | 146° |
| 2026-04-23 15:41 | 46.57837 | 23.02929 | 40935 ft | 510 kts | 146° |
| 2026-04-23 15:41 | 46.51813 | 23.08375 | 40930 ft | 510 kts | 146° |
| 2026-04-23 15:42 | 46.45793 | 23.13803 | 40933 ft | 509 kts | 146° |
| 2026-04-23 15:42 | 46.39780 | 23.19211 | 40934 ft | 509 kts | 146° |
| 2026-04-23 15:43 | 46.33793 | 23.24582 | 40932 ft | 509 kts | 146° |
| 2026-04-23 15:43 | 46.27739 | 23.29997 | 40927 ft | 508 kts | 146° |
| 2026-04-23 15:44 | 46.21753 | 23.35338 | 40927 ft | 508 kts | 146° |
| 2026-04-23 15:44 | 46.15731 | 23.40698 | 40930 ft | 509 kts | 146° |
| 2026-04-23 15:45 | 46.09707 | 23.46047 | 40926 ft | 509 kts | 146° |
| 2026-04-23 15:45 | 46.03680 | 23.51384 | 40931 ft | 509 kts | 146° |
| 2026-04-23 15:46 | 45.97652 | 23.56706 | 40929 ft | 508 kts | 146° |
| 2026-04-23 15:46 | 45.91617 | 23.62021 | 40935 ft | 508 kts | 146° |
| 2026-04-23 15:47 | 45.85590 | 23.67315 | 40929 ft | 508 kts | 146° |
| 2026-04-23 15:47 | 45.79547 | 23.72548 | 40923 ft | 508 kts | 150° |
| 2026-04-23 15:48 | 45.73251 | 23.77147 | 40924 ft | 508 kts | 152° |
| 2026-04-23 15:48 | 45.66898 | 23.81595 | 40924 ft | 509 kts | 152° |
| 2026-04-23 15:49 | 45.60534 | 23.86017 | 40922 ft | 509 kts | 152° |
| 2026-04-23 15:49 | 45.54159 | 23.90449 | 40928 ft | 509 kts | 152° |
| 2026-04-23 15:50 | 45.47781 | 23.94883 | 40925 ft | 510 kts | 152° |
| 2026-04-23 15:50 | 45.41442 | 23.99281 | 40928 ft | 510 kts | 152° |
| 2026-04-23 15:51 | 45.35068 | 24.03694 | 40921 ft | 510 kts | 152° |
| 2026-04-23 15:51 | 45.28693 | 24.08093 | 40915 ft | 509 kts | 153° |
| 2026-04-23 15:52 | 45.22325 | 24.12476 | 40913 ft | 508 kts | 153° |
| 2026-04-23 15:52 | 45.15969 | 24.16839 | 40908 ft | 507 kts | 153° |
| 2026-04-23 15:53 | 45.09613 | 24.21193 | 40906 ft | 507 kts | 153° |
| 2026-04-23 15:53 | 45.03273 | 24.25524 | 40906 ft | 506 kts | 153° |
| 2026-04-23 15:54 | 44.96924 | 24.29852 | 40898 ft | 506 kts | 153° |
| 2026-04-23 15:54 | 44.90620 | 24.34142 | 40898 ft | 506 kts | 152° |
| 2026-04-23 15:55 | 44.84329 | 24.38624 | 40894 ft | 507 kts | 151° |
| 2026-04-23 15:55 | 44.78026 | 24.43215 | 40895 ft | 507 kts | 151° |
| 2026-04-23 15:56 | 44.71796 | 24.47715 | 40893 ft | 506 kts | 151° |
| 2026-04-23 15:56 | 44.65520 | 24.52208 | 40893 ft | 506 kts | 151° |
| 2026-04-23 15:57 | 44.59249 | 24.56677 | 40892 ft | 505 kts | 151° |
| 2026-04-23 15:57 | 44.52982 | 24.61132 | 40891 ft | 505 kts | 151° |
| 2026-04-23 15:58 | 44.46715 | 24.65579 | 40890 ft | 505 kts | 151° |
| 2026-04-23 15:58 | 44.40439 | 24.70021 | 40889 ft | 505 kts | 152° |
| 2026-04-23 15:59 | 44.34168 | 24.74449 | 40886 ft | 506 kts | 152° |
| 2026-04-23 15:59 | 44.27919 | 24.78851 | 40886 ft | 506 kts | 152° |
| 2026-04-23 16:00 | 44.21629 | 24.83271 | 40889 ft | 507 kts | 152° |
| 2026-04-23 16:00 | 44.15327 | 24.87689 | 40887 ft | 507 kts | 152° |
| 2026-04-23 16:01 | 44.09032 | 24.92093 | 40882 ft | 506 kts | 152° |
| 2026-04-23 16:01 | 44.02739 | 24.96484 | 40889 ft | 505 kts | 152° |
| 2026-04-23 16:02 | 43.96465 | 25.00852 | 40895 ft | 504 kts | 152° |
| 2026-04-23 16:02 | 43.90301 | 25.05490 | 40889 ft | 502 kts | 149° |
| 2026-04-23 16:03 | 43.84233 | 25.10291 | 40896 ft | 502 kts | 149° |
| 2026-04-23 16:03 | 43.78153 | 25.15048 | 40892 ft | 502 kts | 149° |
| 2026-04-23 16:04 | 43.72077 | 25.19734 | 40897 ft | 503 kts | 149° |
| 2026-04-23 16:04 | 43.65914 | 25.24454 | 40900 ft | 504 kts | 150° |
| 2026-04-23 16:05 | 43.60816 | 25.28350 | 40899 ft | 504 kts | 150° |
| 2026-04-23 16:05 | 43.53687 | 25.33788 | 40902 ft | 504 kts | 150° |
| 2026-04-23 16:06 | 43.47545 | 25.38464 | 40902 ft | 504 kts | 150° |
| 2026-04-23 16:06 | 43.41400 | 25.43131 | 40909 ft | 505 kts | 150° |
| 2026-04-23 16:07 | 43.35243 | 25.47796 | 40912 ft | 505 kts | 150° |
| 2026-04-23 16:07 | 43.29082 | 25.52453 | 40911 ft | 505 kts | 150° |
| 2026-04-23 16:08 | 43.22914 | 25.57104 | 40921 ft | 506 kts | 150° |
| 2026-04-23 16:08 | 43.17790 | 25.60960 | 40911 ft | 506 kts | 150° |
| 2026-04-23 16:09 | 43.11621 | 25.65592 | 40913 ft | 506 kts | 150° |
| 2026-04-23 16:09 | 43.05437 | 25.70225 | 40917 ft | 506 kts | 150° |
| 2026-04-23 16:10 | 42.99269 | 25.74836 | 40915 ft | 506 kts | 150° |
| 2026-04-23 16:10 | 42.93088 | 25.79445 | 40922 ft | 505 kts | 150° |
| 2026-04-23 16:11 | 42.86911 | 25.84041 | 40930 ft | 506 kts | 151° |
| 2026-04-23 16:11 | 42.80724 | 25.88635 | 40934 ft | 507 kts | 151° |
| 2026-04-23 16:12 | 42.74570 | 25.93192 | 40940 ft | 507 kts | 151° |
| 2026-04-23 16:12 | 42.68367 | 25.97776 | 40939 ft | 507 kts | 151° |
| 2026-04-23 16:13 | 42.62171 | 26.02344 | 40938 ft | 507 kts | 151° |
| 2026-04-23 16:13 | 42.52882 | 26.09173 | 40936 ft | 506 kts | 152° |
| 2026-04-23 16:14 | 42.46695 | 26.13709 | 40933 ft | 506 kts | 152° |
| 2026-04-23 16:14 | 42.40501 | 26.18239 | 40937 ft | 506 kts | 152° |
| 2026-04-23 16:15 | 42.34303 | 26.22761 | 40937 ft | 506 kts | 152° |
| 2026-04-23 16:15 | 42.28109 | 26.27271 | 40935 ft | 506 kts | 152° |
| 2026-04-23 16:16 | 42.21907 | 26.31777 | 40936 ft | 506 kts | 152° |
| 2026-04-23 16:16 | 42.15737 | 26.36249 | 40940 ft | 506 kts | 152° |
| 2026-04-23 16:17 | 42.09534 | 26.40735 | 40941 ft | 506 kts | 153° |
| 2026-04-23 16:17 | 42.03330 | 26.45212 | 40941 ft | 506 kts | 153° |
| 2026-04-23 16:18 | 41.97123 | 26.49681 | 40936 ft | 506 kts | 153° |
| 2026-04-23 16:18 | 41.90920 | 26.54137 | 40941 ft | 506 kts | 153° |
| 2026-04-23 16:19 | 41.84891 | 26.59007 | 40944 ft | 507 kts | 147° |
| 2026-04-23 16:19 | 41.79092 | 26.64412 | 40944 ft | 507 kts | 146° |
| 2026-04-23 16:20 | 41.73329 | 26.69886 | 40949 ft | 508 kts | 146° |
| 2026-04-23 16:20 | 41.67567 | 26.75342 | 40951 ft | 508 kts | 146° |
| 2026-04-23 16:21 | 41.61772 | 26.80798 | 40949 ft | 509 kts | 146° |
| 2026-04-23 16:21 | 41.55978 | 26.86233 | 40955 ft | 509 kts | 146° |
| 2026-04-23 16:22 | 41.50177 | 26.91662 | 40954 ft | 510 kts | 146° |
| 2026-04-23 16:22 | 41.44370 | 26.97088 | 40951 ft | 510 kts | 147° |
| 2026-04-23 16:23 | 41.38553 | 27.02513 | 40961 ft | 510 kts | 147° |
| 2026-04-23 16:23 | 41.32725 | 27.07929 | 40959 ft | 510 kts | 147° |
| 2026-04-23 16:24 | 41.26899 | 27.13331 | 40958 ft | 510 kts | 147° |
| 2026-04-23 16:24 | 41.21111 | 27.18689 | 40958 ft | 510 kts | 147° |
| 2026-04-23 16:25 | 41.15256 | 27.24106 | 40953 ft | 510 kts | 147° |
| 2026-04-23 16:25 | 41.09418 | 27.29480 | 40969 ft | 511 kts | 147° |
| 2026-04-23 16:26 | 41.03608 | 27.34818 | 40973 ft | 511 kts | 148° |
| 2026-04-23 16:26 | 40.97732 | 27.40207 | 40974 ft | 511 kts | 148° |
| 2026-04-23 16:27 | 40.91878 | 27.45426 | 40975 ft | 510 kts | 152° |
| 2026-04-23 16:27 | 40.85709 | 27.50052 | 40979 ft | 509 kts | 154° |
| 2026-04-23 16:28 | 40.79500 | 27.54549 | 40979 ft | 509 kts | 154° |
| 2026-04-23 16:28 | 40.73325 | 27.59133 | 40981 ft | 510 kts | 153° |
| 2026-04-23 16:29 | 40.67172 | 27.63771 | 40978 ft | 510 kts | 153° |
| 2026-04-23 16:29 | 40.61001 | 27.68430 | 40982 ft | 510 kts | 153° |
| 2026-04-23 16:30 | 40.54834 | 27.73073 | 40983 ft | 510 kts | 154° |
| 2026-04-23 16:30 | 40.48667 | 27.77701 | 40978 ft | 511 kts | 154° |
| 2026-04-23 16:31 | 40.42492 | 27.82324 | 40981 ft | 511 kts | 154° |
| 2026-04-23 16:31 | 40.36317 | 27.86937 | 40980 ft | 511 kts | 154° |
| 2026-04-23 16:32 | 40.30120 | 27.91556 | 40980 ft | 512 kts | 154° |
| 2026-04-23 16:32 | 40.23927 | 27.96163 | 40980 ft | 512 kts | 154° |
| 2026-04-23 16:33 | 40.17724 | 28.00768 | 40978 ft | 513 kts | 154° |
| 2026-04-23 16:33 | 40.11519 | 28.05364 | 40978 ft | 513 kts | 154° |
| 2026-04-23 16:34 | 40.05305 | 28.09958 | 40980 ft | 513 kts | 154° |
| 2026-04-23 16:34 | 39.99126 | 28.14515 | 40979 ft | 513 kts | 154° |
| 2026-04-23 16:35 | 39.92915 | 28.19089 | 40975 ft | 513 kts | 154° |
| 2026-04-23 16:35 | 39.86702 | 28.23633 | 40971 ft | 512 kts | 155° |
| 2026-04-23 16:36 | 39.80473 | 28.28153 | 40971 ft | 512 kts | 155° |
| 2026-04-23 16:36 | 39.74258 | 28.32657 | 40961 ft | 511 kts | 155° |
| 2026-04-23 16:37 | 39.68040 | 28.37160 | 40967 ft | 511 kts | 155° |
| 2026-04-23 16:37 | 39.61821 | 28.41658 | 40963 ft | 511 kts | 155° |
| 2026-04-23 16:38 | 39.55612 | 28.46138 | 40964 ft | 511 kts | 155° |
| 2026-04-23 16:38 | 39.49394 | 28.50615 | 40959 ft | 511 kts | 155° |
| 2026-04-23 16:39 | 39.43174 | 28.55084 | 40954 ft | 511 kts | 155° |
| 2026-04-23 16:39 | 39.36963 | 28.59538 | 40955 ft | 511 kts | 155° |
| 2026-04-23 16:40 | 39.30746 | 28.63986 | 40950 ft | 511 kts | 155° |
| 2026-04-23 16:40 | 39.24536 | 28.68421 | 40944 ft | 511 kts | 155° |
| 2026-04-23 16:41 | 39.18307 | 28.72861 | 40951 ft | 511 kts | 156° |
| 2026-04-23 16:41 | 39.12090 | 28.77282 | 40944 ft | 511 kts | 156° |
| 2026-04-23 16:42 | 39.05862 | 28.81709 | 40940 ft | 511 kts | 155° |
| 2026-04-23 16:42 | 38.99679 | 28.86113 | 40944 ft | 511 kts | 156° |
| 2026-04-23 16:43 | 38.93416 | 28.90567 | 40940 ft | 512 kts | 156° |
| 2026-04-23 16:43 | 38.87225 | 28.94962 | 40938 ft | 511 kts | 156° |
| 2026-04-23 16:44 | 38.80999 | 28.99370 | 40936 ft | 511 kts | 156° |
| 2026-04-23 16:44 | 38.74764 | 29.03778 | 40938 ft | 511 kts | 156° |
| 2026-04-23 16:45 | 38.68531 | 29.08175 | 40939 ft | 511 kts | 156° |
| 2026-04-23 16:45 | 38.62299 | 29.12562 | 40939 ft | 511 kts | 156° |
| 2026-04-23 16:46 | 38.56075 | 29.16943 | 40936 ft | 511 kts | 156° |
| 2026-04-23 16:46 | 38.49848 | 29.21307 | 40940 ft | 510 kts | 156° |
| 2026-04-23 16:47 | 38.43622 | 29.25664 | 40939 ft | 510 kts | 156° |
| 2026-04-23 16:47 | 38.37386 | 29.30019 | 40939 ft | 510 kts | 156° |
| 2026-04-23 16:48 | 38.31164 | 29.34357 | 40941 ft | 510 kts | 156° |
| 2026-04-23 16:48 | 38.24936 | 29.38691 | 40937 ft | 510 kts | 156° |
| 2026-04-23 16:49 | 38.18706 | 29.43019 | 40942 ft | 510 kts | 156° |
| 2026-04-23 16:49 | 38.12474 | 29.47339 | 40942 ft | 510 kts | 156° |
| 2026-04-23 16:50 | 38.06246 | 29.51647 | 40937 ft | 510 kts | 156° |
| 2026-04-23 16:50 | 38.00013 | 29.55951 | 40937 ft | 510 kts | 156° |
| 2026-04-23 16:51 | 37.93774 | 29.60250 | 40943 ft | 510 kts | 156° |
| 2026-04-23 16:51 | 37.87531 | 29.64544 | 40944 ft | 510 kts | 157° |
| 2026-04-23 16:52 | 37.81289 | 29.68843 | 40930 ft | 512 kts | 156° |
| 2026-04-23 16:52 | 37.78374 | 29.71493 | 40951 ft | 520 kts | 142° |
| 2026-04-23 16:52 | 37.75693 | 29.74563 | 40937 ft | 521 kts | 141° |
| 2026-04-23 16:53 | 37.71369 | 29.79898 | 40939 ft | 523 kts | 139° |
| 2026-04-23 16:53 | 37.65423 | 29.87498 | 40935 ft | 524 kts | 139° |
| 2026-04-23 16:54 | 37.60301 | 29.94012 | 40931 ft | 523 kts | 139° |
| 2026-04-23 16:54 | 37.56020 | 29.99411 | 40926 ft | 523 kts | 139° |
| 2026-04-23 16:55 | 37.50898 | 30.05904 | 40918 ft | 523 kts | 139° |
| 2026-04-23 16:55 | 37.45789 | 30.12433 | 40912 ft | 523 kts | 139° |